sensor_id;sensor_type;location;lat;lon;timestamp;temperature;humidity
5554;DHT22;2800;49.528;8.666;2022-12-07T00:03:42;3.40;99.90
5554;DHT22;2800;49.528;8.666;2022-12-07T00:06:09;3.30;99.90
5554;DHT22;2800;49.528;8.666;2022-12-07T00:08:36;3.40;99.90
5554;DHT22;2800;49.528;8.666;2022-12-07T00:11:13;3.40;99.90
5554;DHT22;2800;49.528;8.666;2022-12-07T00:13:39;3.40;99.90
5554;DHT22;2800;49.528;8.666;2022-12-07T00:16:14;3.30;99.90
5554;DHT22;2800;49.528;8.666;2022-12-07T00:18:40;3.20;99.90
5554;DHT22;2800;49.528;8.666;2022-12-07T00:21:10;3.10;99.90
5554;DHT22;2800;49.528;8.666;2022-12-07T00:23:36;3.10;99.90
5554;DHT22;2800;49.528;8.666;2022-12-07T00:26:22;3.10;99.90
5554;DHT22;2800;49.528;8.666;2022-12-07T00:28:53;3.10;99.90
5554;DHT22;2800;49.528;8.666;2022-12-07T00:31:21;3.10;99.90
5554;DHT22;2800;49.528;8.666;2022-12-07T00:33:47;3.10;99.90
5554;DHT22;2800;49.528;8.666;2022-12-07T00:36:15;3.10;99.90
5554;DHT22;2800;49.528;8.666;2022-12-07T00:38:41;3.10;99.90
5554;DHT22;2800;49.528;8.666;2022-12-07T00:41:10;3.10;99.90
5554;DHT22;2800;49.528;8.666;2022-12-07T00:43:36;3.20;99.90
5554;DHT22;2800;49.528;8.666;2022-12-07T00:46:02;3.10;99.90
5554;DHT22;2800;49.528;8.666;2022-12-07T00:48:27;3.10;99.90
5554;DHT22;2800;49.528;8.666;2022-12-07T00:50:53;3.10;99.90
5554;DHT22;2800;49.528;8.666;2022-12-07T00:53:18;3.10;99.90
5554;DHT22;2800;49.528;8.666;2022-12-07T00:55:45;3.20;99.90
5554;DHT22;2800;49.528;8.666;2022-12-07T00:58:10;3.30;99.90
5554;DHT22;2800;49.528;8.666;2022-12-07T01:00:39;3.20;99.90
5554;DHT22;2800;49.528;8.666;2022-12-07T01:03:06;3.20;99.90
5554;DHT22;2800;49.528;8.666;2022-12-07T01:05:32;3.10;99.90
5554;DHT22;2800;49.528;8.666;2022-12-07T01:07:58;3.10;99.90
5554;DHT22;2800;49.528;8.666;2022-12-07T01:10:24;3.10;99.90
5554;DHT22;2800;49.528;8.666;2022-12-07T01:12:49;3.00;99.90
5554;DHT22;2800;49.528;8.666;2022-12-07T01:15:15;3.10;99.90
5554;DHT22;2800;49.528;8.666;2022-12-07T01:17:40;3.00;99.90
5554;DHT22;2800;49.528;8.666;2022-12-07T01:20:06;3.00;99.90
5554;DHT22;2800;49.528;8.666;2022-12-07T01:22:40;3.00;99.90
5554;DHT22;2800;49.528;8.666;2022-12-07T01:25:07;3.00;99.90
5554;DHT22;2800;49.528;8.666;2022-12-07T01:27:33;2.90;99.90
5554;DHT22;2800;49.528;8.666;2022-12-07T01:29:59;3.00;99.90
5554;DHT22;2800;49.528;8.666;2022-12-07T01:32:25;2.90;99.90
5554;DHT22;2800;49.528;8.666;2022-12-07T01:34:51;2.90;99.90
5554;DHT22;2800;49.528;8.666;2022-12-07T01:37:16;2.90;99.90
5554;DHT22;2800;49.528;8.666;2022-12-07T01:39:42;2.90;99.90
5554;DHT22;2800;49.528;8.666;2022-12-07T01:42:11;3.00;99.90
5554;DHT22;2800;49.528;8.666;2022-12-07T01:47:41;3.00;99.90
5554;DHT22;2800;49.528;8.666;2022-12-07T01:50:08;3.10;99.90
5554;DHT22;2800;49.528;8.666;2022-12-07T01:52:36;3.10;99.90
5554;DHT22;2800;49.528;8.666;2022-12-07T01:55:06;3.20;99.90
5554;DHT22;2800;49.528;8.666;2022-12-07T01:57:34;3.20;99.90
5554;DHT22;2800;49.528;8.666;2022-12-07T02:00:05;3.20;99.90
5554;DHT22;2800;49.528;8.666;2022-12-07T02:02:34;3.30;99.90
5554;DHT22;2800;49.528;8.666;2022-12-07T02:05:03;3.30;99.90
5554;DHT22;2800;49.528;8.666;2022-12-07T02:07:29;3.30;99.90
5554;DHT22;2800;49.528;8.666;2022-12-07T02:09:56;3.10;99.90
5554;DHT22;2800;49.528;8.666;2022-12-07T02:12:23;3.00;99.90
5554;DHT22;2800;49.528;8.666;2022-12-07T02:14:50;3.00;99.90
5554;DHT22;2800;49.528;8.666;2022-12-07T02:19:57;2.90;99.90
5554;DHT22;2800;49.528;8.666;2022-12-07T02:28:29;3.00;99.90
5554;DHT22;2800;49.528;8.666;2022-12-07T02:31:01;3.00;99.90
5554;DHT22;2800;49.528;8.666;2022-12-07T02:33:33;3.00;99.90
5554;DHT22;2800;49.528;8.666;2022-12-07T02:36:06;3.00;99.90
5554;DHT22;2800;49.528;8.666;2022-12-07T02:38:47;3.00;99.90
5554;DHT22;2800;49.528;8.666;2022-12-07T02:41:35;3.00;99.90
5554;DHT22;2800;49.528;8.666;2022-12-07T02:44:05;3.00;99.90
5554;DHT22;2800;49.528;8.666;2022-12-07T02:46:35;3.10;99.90
5554;DHT22;2800;49.528;8.666;2022-12-07T02:49:03;3.10;99.90
5554;DHT22;2800;49.528;8.666;2022-12-07T02:51:32;3.10;99.90
5554;DHT22;2800;49.528;8.666;2022-12-07T02:53:59;3.10;99.90
5554;DHT22;2800;49.528;8.666;2022-12-07T03:13:17;3.00;99.90
5554;DHT22;2800;49.528;8.666;2022-12-07T03:15:53;3.00;99.90
5554;DHT22;2800;49.528;8.666;2022-12-07T03:18:23;3.10;99.90
5554;DHT22;2800;49.528;8.666;2022-12-07T03:20:52;3.10;99.90
5554;DHT22;2800;49.528;8.666;2022-12-07T03:23:19;3.20;99.90
5554;DHT22;2800;49.528;8.666;2022-12-07T03:25:49;3.20;99.90
5554;DHT22;2800;49.528;8.666;2022-12-07T03:28:19;3.20;99.90
5554;DHT22;2800;49.528;8.666;2022-12-07T03:30:51;3.20;99.90
5554;DHT22;2800;49.528;8.666;2022-12-07T03:33:25;3.20;99.90
5554;DHT22;2800;49.528;8.666;2022-12-07T03:35:59;3.20;99.90
5554;DHT22;2800;49.528;8.666;2022-12-07T03:38:34;3.30;99.90
5554;DHT22;2800;49.528;8.666;2022-12-07T03:41:08;3.30;99.90
5554;DHT22;2800;49.528;8.666;2022-12-07T03:43:35;3.30;99.90
5554;DHT22;2800;49.528;8.666;2022-12-07T03:46:19;3.30;99.90
5554;DHT22;2800;49.528;8.666;2022-12-07T03:51:50;3.40;99.90
5554;DHT22;2800;49.528;8.666;2022-12-07T03:54:39;3.40;99.90
5554;DHT22;2800;49.528;8.666;2022-12-07T03:57:08;3.40;99.90
5554;DHT22;2800;49.528;8.666;2022-12-07T03:59:34;3.40;99.90
5554;DHT22;2800;49.528;8.666;2022-12-07T04:02:03;3.40;99.90
5554;DHT22;2800;49.528;8.666;2022-12-07T04:04:29;3.40;99.90
5554;DHT22;2800;49.528;8.666;2022-12-07T04:06:55;3.40;99.90
5554;DHT22;2800;49.528;8.666;2022-12-07T04:09:21;3.40;99.90
5554;DHT22;2800;49.528;8.666;2022-12-07T04:11:47;3.50;99.90
5554;DHT22;2800;49.528;8.666;2022-12-07T04:14:12;3.50;99.90
5554;DHT22;2800;49.528;8.666;2022-12-07T04:16:57;3.50;99.90
5554;DHT22;2800;49.528;8.666;2022-12-07T04:19:26;3.50;99.90
5554;DHT22;2800;49.528;8.666;2022-12-07T04:21:51;3.50;99.90
5554;DHT22;2800;49.528;8.666;2022-12-07T04:24:17;3.60;99.90
5554;DHT22;2800;49.528;8.666;2022-12-07T04:26:44;3.60;99.90
5554;DHT22;2800;49.528;8.666;2022-12-07T04:29:10;3.60;99.90
5554;DHT22;2800;49.528;8.666;2022-12-07T04:31:36;3.60;99.90
5554;DHT22;2800;49.528;8.666;2022-12-07T04:34:02;3.60;99.90
5554;DHT22;2800;49.528;8.666;2022-12-07T04:36:27;3.60;99.90
5554;DHT22;2800;49.528;8.666;2022-12-07T04:38:54;3.60;99.90
5554;DHT22;2800;49.528;8.666;2022-12-07T04:41:20;3.60;99.90
5554;DHT22;2800;49.528;8.666;2022-12-07T04:43:53;3.60;99.90
5554;DHT22;2800;49.528;8.666;2022-12-07T04:46:19;3.60;99.90
5554;DHT22;2800;49.528;8.666;2022-12-07T04:48:44;3.60;99.90
5554;DHT22;2800;49.528;8.666;2022-12-07T04:51:10;3.70;99.90
5554;DHT22;2800;49.528;8.666;2022-12-07T04:53:35;3.70;99.90
5554;DHT22;2800;49.528;8.666;2022-12-07T04:56:01;3.60;99.90
5554;DHT22;2800;49.528;8.666;2022-12-07T04:58:26;3.50;99.90
5554;DHT22;2800;49.528;8.666;2022-12-07T05:00:55;3.30;99.90
5554;DHT22;2800;49.528;8.666;2022-12-07T05:03:21;3.20;99.90
5554;DHT22;2800;49.528;8.666;2022-12-07T05:05:46;3.20;99.90
5554;DHT22;2800;49.528;8.666;2022-12-07T05:08:12;3.10;99.90
5554;DHT22;2800;49.528;8.666;2022-12-07T05:10:37;3.10;99.90
5554;DHT22;2800;49.528;8.666;2022-12-07T05:13:03;3.10;99.90
5554;DHT22;2800;49.528;8.666;2022-12-07T05:15:28;3.10;99.90
5554;DHT22;2800;49.528;8.666;2022-12-07T05:17:54;3.00;99.90
5554;DHT22;2800;49.528;8.666;2022-12-07T05:20:19;3.00;99.90
5554;DHT22;2800;49.528;8.666;2022-12-07T05:22:45;3.00;99.90
5554;DHT22;2800;49.528;8.666;2022-12-07T05:25:10;3.00;99.90
5554;DHT22;2800;49.528;8.666;2022-12-07T05:27:36;3.00;99.90
5554;DHT22;2800;49.528;8.666;2022-12-07T05:30:01;2.90;99.90
5554;DHT22;2800;49.528;8.666;2022-12-07T05:32:27;2.90;99.90
5554;DHT22;2800;49.528;8.666;2022-12-07T05:34:53;2.90;99.90
5554;DHT22;2800;49.528;8.666;2022-12-07T05:37:20;2.80;99.90
5554;DHT22;2800;49.528;8.666;2022-12-07T05:39:45;2.80;99.90
5554;DHT22;2800;49.528;8.666;2022-12-07T05:42:11;2.80;99.90
5554;DHT22;2800;49.528;8.666;2022-12-07T05:44:44;2.80;99.90
5554;DHT22;2800;49.528;8.666;2022-12-07T05:47:10;2.70;99.90
5554;DHT22;2800;49.528;8.666;2022-12-07T05:49:36;2.70;99.90
5554;DHT22;2800;49.528;8.666;2022-12-07T05:52:02;2.80;99.90
5554;DHT22;2800;49.528;8.666;2022-12-07T05:54:28;2.70;99.90
5554;DHT22;2800;49.528;8.666;2022-12-07T05:56:54;2.70;99.90
5554;DHT22;2800;49.528;8.666;2022-12-07T05:59:19;2.70;99.90
5554;DHT22;2800;49.528;8.666;2022-12-07T06:01:52;2.70;99.90
5554;DHT22;2800;49.528;8.666;2022-12-07T06:04:18;2.70;99.90
5554;DHT22;2800;49.528;8.666;2022-12-07T06:06:44;2.70;99.90
5554;DHT22;2800;49.528;8.666;2022-12-07T06:09:10;2.70;99.90
5554;DHT22;2800;49.528;8.666;2022-12-07T06:11:36;2.70;99.90
5554;DHT22;2800;49.528;8.666;2022-12-07T06:14:21;2.70;99.90
5554;DHT22;2800;49.528;8.666;2022-12-07T06:16:46;2.60;99.90
5554;DHT22;2800;49.528;8.666;2022-12-07T06:19:12;2.60;99.90
5554;DHT22;2800;49.528;8.666;2022-12-07T06:21:38;2.60;99.90
5554;DHT22;2800;49.528;8.666;2022-12-07T06:24:03;2.60;99.90
5554;DHT22;2800;49.528;8.666;2022-12-07T06:26:29;2.50;99.90
5554;DHT22;2800;49.528;8.666;2022-12-07T06:28:55;2.30;99.90
5554;DHT22;2800;49.528;8.666;2022-12-07T06:31:20;2.60;99.90
5554;DHT22;2800;49.528;8.666;2022-12-07T06:33:46;2.50;99.90
5554;DHT22;2800;49.528;8.666;2022-12-07T06:36:11;2.50;99.90
5554;DHT22;2800;49.528;8.666;2022-12-07T06:38:37;2.50;99.90
5554;DHT22;2800;49.528;8.666;2022-12-07T06:41:03;2.50;99.90
5554;DHT22;2800;49.528;8.666;2022-12-07T06:43:29;2.50;99.90
5554;DHT22;2800;49.528;8.666;2022-12-07T06:45:55;2.50;99.90
5554;DHT22;2800;49.528;8.666;2022-12-07T06:48:20;2.50;99.90
5554;DHT22;2800;49.528;8.666;2022-12-07T06:50:47;2.50;99.90
5554;DHT22;2800;49.528;8.666;2022-12-07T06:53:13;2.60;99.90
5554;DHT22;2800;49.528;8.666;2022-12-07T06:55:38;2.60;99.90
5554;DHT22;2800;49.528;8.666;2022-12-07T06:58:04;2.60;99.90
5554;DHT22;2800;49.528;8.666;2022-12-07T07:00:30;2.60;99.90
5554;DHT22;2800;49.528;8.666;2022-12-07T07:02:55;2.70;99.90
5554;DHT22;2800;49.528;8.666;2022-12-07T07:05:21;2.70;99.90
5554;DHT22;2800;49.528;8.666;2022-12-07T07:07:48;2.70;99.90
5554;DHT22;2800;49.528;8.666;2022-12-07T07:10:14;2.70;99.90
5554;DHT22;2800;49.528;8.666;2022-12-07T07:12:40;2.70;99.90
5554;DHT22;2800;49.528;8.666;2022-12-07T07:15:05;2.80;99.90
5554;DHT22;2800;49.528;8.666;2022-12-07T07:17:31;2.80;99.90
5554;DHT22;2800;49.528;8.666;2022-12-07T07:19:57;2.80;99.90
5554;DHT22;2800;49.528;8.666;2022-12-07T07:22:22;2.80;99.90
5554;DHT22;2800;49.528;8.666;2022-12-07T07:24:48;2.80;99.90
5554;DHT22;2800;49.528;8.666;2022-12-07T07:27:13;2.90;99.90
5554;DHT22;2800;49.528;8.666;2022-12-07T07:29:39;2.90;99.90
5554;DHT22;2800;49.528;8.666;2022-12-07T07:32:04;3.00;99.90
5554;DHT22;2800;49.528;8.666;2022-12-07T07:34:30;3.00;99.90
5554;DHT22;2800;49.528;8.666;2022-12-07T07:36:55;3.00;99.90
5554;DHT22;2800;49.528;8.666;2022-12-07T07:39:21;3.10;99.90
5554;DHT22;2800;49.528;8.666;2022-12-07T07:41:46;3.10;99.90
5554;DHT22;2800;49.528;8.666;2022-12-07T07:44:12;3.10;99.90
5554;DHT22;2800;49.528;8.666;2022-12-07T07:46:38;3.10;99.90
5554;DHT22;2800;49.528;8.666;2022-12-07T07:49:03;3.10;99.90
5554;DHT22;2800;49.528;8.666;2022-12-07T07:51:29;3.20;99.90
5554;DHT22;2800;49.528;8.666;2022-12-07T07:53:54;3.20;99.90
5554;DHT22;2800;49.528;8.666;2022-12-07T07:56:20;3.20;99.90
5554;DHT22;2800;49.528;8.666;2022-12-07T07:58:45;3.20;99.90
5554;DHT22;2800;49.528;8.666;2022-12-07T08:01:11;3.20;99.90
5554;DHT22;2800;49.528;8.666;2022-12-07T08:03:38;3.20;99.90
5554;DHT22;2800;49.528;8.666;2022-12-07T08:06:04;3.20;99.90
5554;DHT22;2800;49.528;8.666;2022-12-07T08:08:30;3.20;99.90
5554;DHT22;2800;49.528;8.666;2022-12-07T08:10:55;3.30;99.90
5554;DHT22;2800;49.528;8.666;2022-12-07T08:13:21;3.30;99.90
5554;DHT22;2800;49.528;8.666;2022-12-07T08:15:47;3.30;99.90
5554;DHT22;2800;49.528;8.666;2022-12-07T08:18:14;3.30;99.90
5554;DHT22;2800;49.528;8.666;2022-12-07T08:20:40;3.30;99.90
5554;DHT22;2800;49.528;8.666;2022-12-07T08:23:07;3.30;99.90
5554;DHT22;2800;49.528;8.666;2022-12-07T08:25:33;3.30;99.90
5554;DHT22;2800;49.528;8.666;2022-12-07T08:27:58;3.30;99.90
5554;DHT22;2800;49.528;8.666;2022-12-07T08:30:26;3.30;99.90
5554;DHT22;2800;49.528;8.666;2022-12-07T08:32:51;3.30;99.90
5554;DHT22;2800;49.528;8.666;2022-12-07T08:35:17;3.40;99.90
5554;DHT22;2800;49.528;8.666;2022-12-07T08:37:43;3.40;99.90
5554;DHT22;2800;49.528;8.666;2022-12-07T08:40:09;3.50;99.90
5554;DHT22;2800;49.528;8.666;2022-12-07T08:42:40;3.40;99.90
5554;DHT22;2800;49.528;8.666;2022-12-07T08:45:09;3.50;99.90
5554;DHT22;2800;49.528;8.666;2022-12-07T08:47:37;3.50;99.90
5554;DHT22;2800;49.528;8.666;2022-12-07T08:50:06;3.50;99.90
5554;DHT22;2800;49.528;8.666;2022-12-07T08:52:34;3.40;99.90
5554;DHT22;2800;49.528;8.666;2022-12-07T08:55:00;3.50;99.90
5554;DHT22;2800;49.528;8.666;2022-12-07T08:57:27;3.50;99.90
5554;DHT22;2800;49.528;8.666;2022-12-07T08:59:53;3.50;99.90
5554;DHT22;2800;49.528;8.666;2022-12-07T09:02:18;3.50;99.90
5554;DHT22;2800;49.528;8.666;2022-12-07T09:04:44;3.50;99.90
5554;DHT22;2800;49.528;8.666;2022-12-07T09:07:09;3.50;99.90
5554;DHT22;2800;49.528;8.666;2022-12-07T09:09:35;3.50;99.90
5554;DHT22;2800;49.528;8.666;2022-12-07T09:12:00;3.50;99.90
5554;DHT22;2800;49.528;8.666;2022-12-07T09:14:26;3.60;99.90
5554;DHT22;2800;49.528;8.666;2022-12-07T09:16:51;3.60;99.90
5554;DHT22;2800;49.528;8.666;2022-12-07T09:19:17;3.60;99.90
5554;DHT22;2800;49.528;8.666;2022-12-07T09:21:42;3.60;99.90
5554;DHT22;2800;49.528;8.666;2022-12-07T09:24:08;3.60;99.90
5554;DHT22;2800;49.528;8.666;2022-12-07T09:26:34;3.60;99.90
5554;DHT22;2800;49.528;8.666;2022-12-07T09:29:01;3.70;99.90
5554;DHT22;2800;49.528;8.666;2022-12-07T09:31:27;3.80;99.90
5554;DHT22;2800;49.528;8.666;2022-12-07T09:33:59;3.80;99.90
5554;DHT22;2800;49.528;8.666;2022-12-07T09:36:26;3.80;99.90
5554;DHT22;2800;49.528;8.666;2022-12-07T09:38:51;3.70;99.90
5554;DHT22;2800;49.528;8.666;2022-12-07T09:41:17;3.70;99.90
5554;DHT22;2800;49.528;8.666;2022-12-07T09:43:43;3.70;99.90
5554;DHT22;2800;49.528;8.666;2022-12-07T09:46:14;3.70;99.90
5554;DHT22;2800;49.528;8.666;2022-12-07T09:48:42;3.70;99.90
5554;DHT22;2800;49.528;8.666;2022-12-07T09:53:41;3.70;99.90
5554;DHT22;2800;49.528;8.666;2022-12-07T09:56:13;3.70;99.90
5554;DHT22;2800;49.528;8.666;2022-12-07T09:58:39;3.70;99.90
5554;DHT22;2800;49.528;8.666;2022-12-07T10:03:35;3.80;99.90
5554;DHT22;2800;49.528;8.666;2022-12-07T10:06:02;3.80;99.90
5554;DHT22;2800;49.528;8.666;2022-12-07T10:08:29;3.90;99.90
5554;DHT22;2800;49.528;8.666;2022-12-07T10:10:55;3.90;99.90
5554;DHT22;2800;49.528;8.666;2022-12-07T10:13:46;4.00;99.90
5554;DHT22;2800;49.528;8.666;2022-12-07T10:16:30;3.90;99.90
5554;DHT22;2800;49.528;8.666;2022-12-07T10:18:57;3.90;99.90
5554;DHT22;2800;49.528;8.666;2022-12-07T10:21:28;3.80;99.90
5554;DHT22;2800;49.528;8.666;2022-12-07T10:24:14;3.80;99.90
5554;DHT22;2800;49.528;8.666;2022-12-07T10:26:51;3.90;99.90
5554;DHT22;2800;49.528;8.666;2022-12-07T10:32:02;3.90;99.90
5554;DHT22;2800;49.528;8.666;2022-12-07T10:34:34;3.90;99.90
5554;DHT22;2800;49.528;8.666;2022-12-07T10:39:48;4.00;99.90
5554;DHT22;2800;49.528;8.666;2022-12-07T10:42:28;4.10;99.90
5554;DHT22;2800;49.528;8.666;2022-12-07T10:55:47;4.20;99.90
5554;DHT22;2800;49.528;8.666;2022-12-07T11:01:24;4.30;99.90
5554;DHT22;2800;49.528;8.666;2022-12-07T11:06:37;4.20;99.90
5554;DHT22;2800;49.528;8.666;2022-12-07T11:09:29;4.20;99.90
5554;DHT22;2800;49.528;8.666;2022-12-07T11:12:30;4.20;99.90
5554;DHT22;2800;49.528;8.666;2022-12-07T11:15:13;4.20;99.90
5554;DHT22;2800;49.528;8.666;2022-12-07T11:23:29;4.20;99.90
5554;DHT22;2800;49.528;8.666;2022-12-07T11:31:32;4.20;99.90
5554;DHT22;2800;49.528;8.666;2022-12-07T11:34:15;4.20;99.90
5554;DHT22;2800;49.528;8.666;2022-12-07T11:36:48;4.20;99.90
5554;DHT22;2800;49.528;8.666;2022-12-07T11:39:30;4.20;99.90
5554;DHT22;2800;49.528;8.666;2022-12-07T11:42:14;4.20;99.90
5554;DHT22;2800;49.528;8.666;2022-12-07T11:45:00;4.30;99.90
5554;DHT22;2800;49.528;8.666;2022-12-07T11:47:38;4.30;99.90
5554;DHT22;2800;49.528;8.666;2022-12-07T11:52:51;4.50;99.90
5554;DHT22;2800;49.528;8.666;2022-12-07T11:55:49;4.50;99.90
5554;DHT22;2800;49.528;8.666;2022-12-07T11:58:49;4.50;99.90
5554;DHT22;2800;49.528;8.666;2022-12-07T12:01:36;4.50;99.90
5554;DHT22;2800;49.528;8.666;2022-12-07T12:06:41;4.60;99.90
5554;DHT22;2800;49.528;8.666;2022-12-07T12:17:50;4.90;99.90
5554;DHT22;2800;49.528;8.666;2022-12-07T12:22:50;5.00;99.90
5554;DHT22;2800;49.528;8.666;2022-12-07T12:27:54;5.00;99.90
5554;DHT22;2800;49.528;8.666;2022-12-07T12:33:16;5.10;99.90
5554;DHT22;2800;49.528;8.666;2022-12-07T12:35:45;5.10;99.90
5554;DHT22;2800;49.528;8.666;2022-12-07T12:38:30;5.20;99.90
5554;DHT22;2800;49.528;8.666;2022-12-07T12:40:57;5.20;99.90
5554;DHT22;2800;49.528;8.666;2022-12-07T12:43:46;5.20;99.90
5554;DHT22;2800;49.528;8.666;2022-12-07T12:49:14;5.00;99.90
5554;DHT22;2800;49.528;8.666;2022-12-07T12:51:44;5.00;99.90
5554;DHT22;2800;49.528;8.666;2022-12-07T12:56:47;5.00;99.90
5554;DHT22;2800;49.528;8.666;2022-12-07T13:01:47;5.00;99.90
5554;DHT22;2800;49.528;8.666;2022-12-07T13:06:47;5.00;99.90
5554;DHT22;2800;49.528;8.666;2022-12-07T13:09:23;5.00;99.90
5554;DHT22;2800;49.528;8.666;2022-12-07T13:11:55;5.00;99.90
5554;DHT22;2800;49.528;8.666;2022-12-07T13:14:41;5.10;99.90
5554;DHT22;2800;49.528;8.666;2022-12-07T13:17:09;5.00;99.90
5554;DHT22;2800;49.528;8.666;2022-12-07T13:24:57;4.90;99.90
5554;DHT22;2800;49.528;8.666;2022-12-07T13:27:25;4.90;99.90
5554;DHT22;2800;49.528;8.666;2022-12-07T13:29:52;4.90;99.90
5554;DHT22;2800;49.528;8.666;2022-12-07T13:32:26;4.90;99.90
5554;DHT22;2800;49.528;8.666;2022-12-07T13:34:52;4.90;99.90
5554;DHT22;2800;49.528;8.666;2022-12-07T13:37:24;5.00;99.90
5554;DHT22;2800;49.528;8.666;2022-12-07T13:40:12;4.90;99.90
5554;DHT22;2800;49.528;8.666;2022-12-07T13:42:43;5.00;99.90
5554;DHT22;2800;49.528;8.666;2022-12-07T13:45:24;5.00;99.90
5554;DHT22;2800;49.528;8.666;2022-12-07T13:50:54;5.10;99.90
5554;DHT22;2800;49.528;8.666;2022-12-07T13:53:20;5.20;99.90
5554;DHT22;2800;49.528;8.666;2022-12-07T13:55:46;5.30;99.90
5554;DHT22;2800;49.528;8.666;2022-12-07T13:58:13;5.30;99.90
5554;DHT22;2800;49.528;8.666;2022-12-07T14:00:40;5.50;99.90
5554;DHT22;2800;49.528;8.666;2022-12-07T14:05:42;5.70;99.90
5554;DHT22;2800;49.528;8.666;2022-12-07T14:10:52;5.50;99.90
5554;DHT22;2800;49.528;8.666;2022-12-07T14:13:33;5.50;99.90
5554;DHT22;2800;49.528;8.666;2022-12-07T14:16:02;5.30;99.90
5554;DHT22;2800;49.528;8.666;2022-12-07T14:18:41;5.30;99.90
5554;DHT22;2800;49.528;8.666;2022-12-07T14:21:16;5.20;99.90
5554;DHT22;2800;49.528;8.666;2022-12-07T14:23:42;5.30;99.90
5554;DHT22;2800;49.528;8.666;2022-12-07T14:26:13;5.20;99.90
5554;DHT22;2800;49.528;8.666;2022-12-07T14:28:41;5.20;99.90
5554;DHT22;2800;49.528;8.666;2022-12-07T14:31:16;5.20;99.90
5554;DHT22;2800;49.528;8.666;2022-12-07T14:33:42;5.20;99.90
5554;DHT22;2800;49.528;8.666;2022-12-07T14:36:12;5.10;99.90
5554;DHT22;2800;49.528;8.666;2022-12-07T14:38:38;5.10;99.90
5554;DHT22;2800;49.528;8.666;2022-12-07T14:41:14;5.10;99.90
5554;DHT22;2800;49.528;8.666;2022-12-07T14:43:58;5.10;99.90
5554;DHT22;2800;49.528;8.666;2022-12-07T14:46:24;5.10;99.90
5554;DHT22;2800;49.528;8.666;2022-12-07T14:48:50;5.10;99.90
5554;DHT22;2800;49.528;8.666;2022-12-07T14:51:15;5.10;99.90
5554;DHT22;2800;49.528;8.666;2022-12-07T14:53:46;5.10;99.90
5554;DHT22;2800;49.528;8.666;2022-12-07T14:56:13;5.10;99.90
5554;DHT22;2800;49.528;8.666;2022-12-07T14:58:39;5.10;99.90
5554;DHT22;2800;49.528;8.666;2022-12-07T15:01:05;5.10;99.90
5554;DHT22;2800;49.528;8.666;2022-12-07T15:03:30;5.10;99.90
5554;DHT22;2800;49.528;8.666;2022-12-07T15:05:56;5.10;99.90
5554;DHT22;2800;49.528;8.666;2022-12-07T15:08:21;5.10;99.90
5554;DHT22;2800;49.528;8.666;2022-12-07T15:10:47;5.10;99.90
5554;DHT22;2800;49.528;8.666;2022-12-07T15:13:12;5.00;99.90
5554;DHT22;2800;49.528;8.666;2022-12-07T15:15:56;5.00;99.90
5554;DHT22;2800;49.528;8.666;2022-12-07T15:18:23;5.00;99.90
5554;DHT22;2800;49.528;8.666;2022-12-07T15:20:50;4.90;99.90
5554;DHT22;2800;49.528;8.666;2022-12-07T15:23:15;4.90;99.90
5554;DHT22;2800;49.528;8.666;2022-12-07T15:25:45;4.90;99.90
5554;DHT22;2800;49.528;8.666;2022-12-07T15:28:11;4.90;99.90
5554;DHT22;2800;49.528;8.666;2022-12-07T15:30:38;4.90;99.90
5554;DHT22;2800;49.528;8.666;2022-12-07T15:33:04;5.00;99.90
5554;DHT22;2800;49.528;8.666;2022-12-07T15:35:29;4.90;99.90
5554;DHT22;2800;49.528;8.666;2022-12-07T15:37:55;4.80;99.90
5554;DHT22;2800;49.528;8.666;2022-12-07T15:40:20;4.90;99.90
5554;DHT22;2800;49.528;8.666;2022-12-07T15:42:46;4.80;99.90
5554;DHT22;2800;49.528;8.666;2022-12-07T15:45:12;4.80;99.90
5554;DHT22;2800;49.528;8.666;2022-12-07T15:47:41;4.70;99.90
5554;DHT22;2800;49.528;8.666;2022-12-07T15:50:11;4.70;99.90
5554;DHT22;2800;49.528;8.666;2022-12-07T15:52:37;4.70;99.90
5554;DHT22;2800;49.528;8.666;2022-12-07T15:55:03;4.70;99.90
5554;DHT22;2800;49.528;8.666;2022-12-07T15:57:31;4.70;99.90
5554;DHT22;2800;49.528;8.666;2022-12-07T15:59:56;4.70;99.90
5554;DHT22;2800;49.528;8.666;2022-12-07T16:02:22;4.60;99.90
5554;DHT22;2800;49.528;8.666;2022-12-07T16:04:48;4.60;99.90
5554;DHT22;2800;49.528;8.666;2022-12-07T16:07:14;4.60;99.90
5554;DHT22;2800;49.528;8.666;2022-12-07T16:09:42;4.60;99.90
5554;DHT22;2800;49.528;8.666;2022-12-07T16:12:07;4.60;99.90
5554;DHT22;2800;49.528;8.666;2022-12-07T16:14:33;4.60;99.90
5554;DHT22;2800;49.528;8.666;2022-12-07T16:16:59;4.60;99.90
5554;DHT22;2800;49.528;8.666;2022-12-07T16:19:24;4.60;99.90
5554;DHT22;2800;49.528;8.666;2022-12-07T16:21:50;4.60;99.90
5554;DHT22;2800;49.528;8.666;2022-12-07T16:24:16;4.60;99.90
5554;DHT22;2800;49.528;8.666;2022-12-07T16:26:42;4.60;99.90
5554;DHT22;2800;49.528;8.666;2022-12-07T16:29:13;4.60;99.90
5554;DHT22;2800;49.528;8.666;2022-12-07T16:31:39;4.60;99.90
5554;DHT22;2800;49.528;8.666;2022-12-07T16:34:05;4.60;99.90
5554;DHT22;2800;49.528;8.666;2022-12-07T16:36:30;4.60;99.90
5554;DHT22;2800;49.528;8.666;2022-12-07T16:38:58;4.60;99.90
5554;DHT22;2800;49.528;8.666;2022-12-07T16:41:23;4.60;99.90
5554;DHT22;2800;49.528;8.666;2022-12-07T16:43:49;4.60;99.90
5554;DHT22;2800;49.528;8.666;2022-12-07T16:46:15;4.60;99.90
5554;DHT22;2800;49.528;8.666;2022-12-07T16:48:41;4.60;99.90
5554;DHT22;2800;49.528;8.666;2022-12-07T16:51:09;4.60;99.90
5554;DHT22;2800;49.528;8.666;2022-12-07T16:53:36;4.60;99.90
5554;DHT22;2800;49.528;8.666;2022-12-07T16:56:03;4.60;99.90
5554;DHT22;2800;49.528;8.666;2022-12-07T16:58:28;4.60;99.90
5554;DHT22;2800;49.528;8.666;2022-12-07T17:00:54;4.60;99.90
5554;DHT22;2800;49.528;8.666;2022-12-07T17:03:20;4.50;99.90
5554;DHT22;2800;49.528;8.666;2022-12-07T17:05:46;4.50;99.90
5554;DHT22;2800;49.528;8.666;2022-12-07T17:08:12;4.50;99.90
5554;DHT22;2800;49.528;8.666;2022-12-07T17:10:41;4.50;99.90
5554;DHT22;2800;49.528;8.666;2022-12-07T17:13:07;4.50;99.90
5554;DHT22;2800;49.528;8.666;2022-12-07T17:16:00;4.50;99.90
5554;DHT22;2800;49.528;8.666;2022-12-07T17:18:34;4.50;99.90
5554;DHT22;2800;49.528;8.666;2022-12-07T17:21:07;4.50;99.90
5554;DHT22;2800;49.528;8.666;2022-12-07T17:23:34;4.50;99.90
5554;DHT22;2800;49.528;8.666;2022-12-07T17:26:10;4.50;99.90
5554;DHT22;2800;49.528;8.666;2022-12-07T17:28:35;4.50;99.90
5554;DHT22;2800;49.528;8.666;2022-12-07T17:31:04;4.50;99.90
5554;DHT22;2800;49.528;8.666;2022-12-07T17:33:31;4.50;99.90
5554;DHT22;2800;49.528;8.666;2022-12-07T17:35:57;4.40;99.90
5554;DHT22;2800;49.528;8.666;2022-12-07T17:38:22;4.50;99.90
5554;DHT22;2800;49.528;8.666;2022-12-07T17:40:48;4.50;99.90
5554;DHT22;2800;49.528;8.666;2022-12-07T17:43:13;4.50;99.90
5554;DHT22;2800;49.528;8.666;2022-12-07T17:45:38;4.60;99.90
5554;DHT22;2800;49.528;8.666;2022-12-07T17:48:04;4.50;99.90
5554;DHT22;2800;49.528;8.666;2022-12-07T17:50:30;4.50;99.90
5554;DHT22;2800;49.528;8.666;2022-12-07T17:53:14;4.50;99.90
5554;DHT22;2800;49.528;8.666;2022-12-07T17:55:40;4.40;99.90
5554;DHT22;2800;49.528;8.666;2022-12-07T17:58:05;4.40;99.90
5554;DHT22;2800;49.528;8.666;2022-12-07T18:00:31;4.30;99.90
5554;DHT22;2800;49.528;8.666;2022-12-07T18:03:03;4.30;99.90
5554;DHT22;2800;49.528;8.666;2022-12-07T18:05:29;4.30;99.90
5554;DHT22;2800;49.528;8.666;2022-12-07T18:07:54;4.30;99.90
5554;DHT22;2800;49.528;8.666;2022-12-07T18:10:20;4.30;99.90
5554;DHT22;2800;49.528;8.666;2022-12-07T18:12:45;4.30;99.90
5554;DHT22;2800;49.528;8.666;2022-12-07T18:15:11;4.30;99.90
5554;DHT22;2800;49.528;8.666;2022-12-07T18:17:36;4.30;99.90
5554;DHT22;2800;49.528;8.666;2022-12-07T18:20:02;4.30;99.90
5554;DHT22;2800;49.528;8.666;2022-12-07T18:22:28;4.30;99.90
5554;DHT22;2800;49.528;8.666;2022-12-07T18:24:53;4.30;99.90